Rp Zug — HE7351 — position and weather

sailwx.info

Track history (hours):
 
Tides and Currents Weather Stations Pressure Air Temp Water Temp Dewpoint Dewpoint Depression Visibility Wind Speed Wind Dir Waves Ship Positions

Rp Zug

Last reported at 2015-Mar-03 19:33 UTC. Time now 2015-Mar-03 20:24 UTC.
Position N 51°28' E 004°14'.

Type: Tanker. MMSI: 269057351.

Date/timePositionNaut miles runAvg speedWind from/ knotsBaromVisibWave heightAir tempDewpointWater temp
2015-Mar-03 19:33N 51°28' E 004°14'0 0.0
2015-Mar-03 18:32N 51°28' E 004°14'0 0.0
2015-Mar-03 17:33N 51°28' E 004°14'0 0.1
2015-Mar-03 16:33N 51°27' E 004°14'5 5.5
2015-Mar-03 15:33N 51°33' E 004°14'8 7.6
2015-Mar-03 14:33N 51°40' E 004°20'5 5.2
2015-Mar-03 13:33N 51°42' E 004°28'1010.3
2015-Mar-03 12:33N 51°45' E 004°44'1010.1
2015-Mar-03 11:33N 51°49' E 004°58'1211.9
2015-Mar-03 10:33N 51°49' E 005°18'1010.3
2015-Mar-03 09:33N 51°54' E 005°33'1411.8
2015-Mar-03 08:22N 51°53' E 005°55'1111.2
2015-Mar-03 07:21N 51°50' E 006°13'  
2015-Feb-28 00:18N 51°30' E 006°52'  
2015-Feb-24 21:04N 51°30' E 006°52'7 1.8
2015-Feb-24 17:17N 51°32' E 007°03'0 0.0
2015-Feb-24 15:23N 51°32' E 007°03'0 0.0
2015-Feb-24 09:20N 51°32' E 007°03'0 0.0
2015-Feb-24 08:29N 51°32' E 007°03'0 0.0
2015-Feb-24 07:30N 51°32' E 007°03'0 0.0
2015-Feb-24 05:27N 51°32' E 007°03'18 2.2
2015-Feb-23 21:12N 51°18' E 006°44'4 6.9
2015-Feb-23 20:33N 51°13' E 006°43'8 7.8
2015-Feb-23 19:34N 51°07' E 006°52'13 9.4
2015-Feb-23 18:11N 50°55' E 006°58'6 0.5
2015-Feb-23 07:27N 50°50' E 006°59'0 0.1
2015-Feb-23 02:21N 50°49' E 006°60'  
Track history (hours):
 
Tides and Currents Weather Stations Pressure Air Temp Water Temp Dewpoint Dewpoint Depression Visibility Wind Speed Wind Dir Waves Ship Positions

Rp Zug

Last reported at 2015-Mar-03 19:33 UTC. Time now 2015-Mar-03 20:24 UTC.
Position N 51°28' E 004°14'.

Type: Tanker. MMSI: 269057351.

Date/timePositionNaut miles runAvg speedWind from/ knotsBaromVisibWave heightAir tempDewpointWater temp
2015-Mar-03 19:33N 51°28' E 004°14'0 0.0
2015-Mar-03 18:32N 51°28' E 004°14'0 0.0
2015-Mar-03 17:33N 51°28' E 004°14'0 0.1
2015-Mar-03 16:33N 51°27' E 004°14'5 5.5
2015-Mar-03 15:33N 51°33' E 004°14'8 7.6
2015-Mar-03 14:33N 51°40' E 004°20'5 5.2
2015-Mar-03 13:33N 51°42' E 004°28'1010.3
2015-Mar-03 12:33N 51°45' E 004°44'1010.1
2015-Mar-03 11:33N 51°49' E 004°58'1211.9
2015-Mar-03 10:33N 51°49' E 005°18'1010.3
2015-Mar-03 09:33N 51°54' E 005°33'1411.8
2015-Mar-03 08:22N 51°53' E 005°55'1111.2
2015-Mar-03 07:21N 51°50' E 006°13'  
2015-Feb-28 00:18N 51°30' E 006°52'  
2015-Feb-24 21:04N 51°30' E 006°52'7 1.8
2015-Feb-24 17:17N 51°32' E 007°03'0 0.0
2015-Feb-24 15:23N 51°32' E 007°03'0 0.0
2015-Feb-24 09:20N 51°32' E 007°03'0 0.0
2015-Feb-24 08:29N 51°32' E 007°03'0 0.0
2015-Feb-24 07:30N 51°32' E 007°03'0 0.0
2015-Feb-24 05:27N 51°32' E 007°03'18 2.2
2015-Feb-23 21:12N 51°18' E 006°44'4 6.9
2015-Feb-23 20:33N 51°13' E 006°43'8 7.8
2015-Feb-23 19:34N 51°07' E 006°52'13 9.4
2015-Feb-23 18:11N 50°55' E 006°58'6 0.5
2015-Feb-23 07:27N 50°50' E 006°59'0 0.1
2015-Feb-23 02:21N 50°49' E 006°60'  

Dump ship's entire track history